Time;durP1;ratioP1;P1;durP2;ratioP2;P2;SDS_P1;SDS_P2;PMS_P1;PMS_P2;Temp;Humidity;BMP_temperature;BMP_pressure;BME280_temperature;BME280_humidity;BME280_pressure;Samples;Min_cycle;Max_cycle;Signal;HPM_P1;HPM_P2
2021/05/17 00:00:38;;;;;;;7.37;4.60;;;;;;;;;;4903887;29;20100;-61
2021/05/17 00:03:08;;;;;;;6.30;5.07;;;;;;;;;;4906878;29;20059;-61
2021/05/17 00:05:35;;;;;;;8.32;5.07;;;;;;;;;;4901807;29;20064;-61
2021/05/17 00:08:02;;;;;;;7.45;4.85;;;;;;;;;;4890218;29;20051;-61
2021/05/17 00:10:29;;;;;;;5.75;4.72;;;;;;;;;;4907731;29;20060;-61
2021/05/17 00:12:56;;;;;;;7.15;5.32;;;;;;;;;;4905611;29;20056;-63
2021/05/17 00:15:23;;;;;;;10.17;6.17;;;;;;;;;;4910610;29;20041;-61
2021/05/17 00:17:51;;;;;;;14.90;7.72;;;;;;;;;;4909743;29;20099;-61
2021/05/17 00:20:18;;;;;;;17.27;7.70;;;;;;;;;;4910389;29;20041;-61
2021/05/17 00:22:45;;;;;;;11.73;7.20;;;;;;;;;;4893862;29;20052;-61
2021/05/17 00:25:13;;;;;;;7.70;5.80;;;;;;;;;;4910904;29;20052;-61
2021/05/17 00:27:41;;;;;;;8.00;6.20;;;;;;;;;;4909094;29;20056;-61
2021/05/17 00:30:07;;;;;;;;;;;;;;;;;;4913478;29;20063;-61
2021/05/17 00:32:36;;;;;;;8.87;6.27;;;;;;;;;;4906763;29;19924;-61
2021/05/17 00:35:03;;;;;;;10.85;6.03;;;;;;;;;;4909310;29;20069;-63
2021/05/17 00:37:30;;;;;;;10.75;5.80;;;;;;;;;;4911011;29;20528;-61
2021/05/17 00:39:57;;;;;;;;;;;;;;;;;;4912769;29;20052;-61
2021/05/17 00:42:24;;;;;;;12.52;6.07;;;;;;;;;;4909512;29;20427;-61
2021/05/17 00:44:51;;;;;;;8.00;6.47;;;;;;;;;;4905639;29;20047;-61
2021/05/17 00:47:18;;;;;;;8.30;6.35;;;;;;;;;;4913280;29;20046;-61
2021/05/17 00:49:45;;;;;;;13.40;6.53;;;;;;;;;;4906664;29;20052;-61
2021/05/17 00:52:14;;;;;;;9.15;6.13;;;;;;;;;;4905144;29;20044;-61
2021/05/17 00:54:41;;;;;;;11.88;7.15;;;;;;;;;;4910915;29;20134;-61
2021/05/17 00:57:08;;;;;;;16.10;7.22;;;;;;;;;;4909188;29;20063;-61
2021/05/17 00:59:36;;;;;;;11.43;7.90;;;;;;;;;;4908571;29;20051;-61
2021/05/17 01:02:04;;;;;;;10.35;7.50;;;;;;;;;;4893937;29;20055;-61
2021/05/17 01:04:56;;;;;;;11.52;8.63;;;;;;;;;;4893876;29;20569;-61
2021/05/17 01:07:27;;;;;;;17.33;10.70;;;;;;;;;;4905093;29;20056;-61
2021/05/17 01:09:56;;;;;;;24.08;10.90;;;;;;;;;;4889543;29;20056;-61
2021/05/17 01:12:25;;;;;;;17.55;9.73;;;;;;;;;;4892494;29;20139;-61
2021/05/17 01:14:56;;;;;;;38.88;14.45;;;;;;;;;;4896734;29;20051;-61
2021/05/17 01:17:25;;;;;;;21.17;11.27;;;;;;;;;;4893562;29;20044;-61
2021/05/17 01:19:59;;;;;;;20.65;12.13;;;;;;;;;;4910019;29;20069;-61
2021/05/17 01:22:37;;;;;;;20.40;11.73;;;;;;;;;;4911957;29;20044;-61
2021/05/17 01:25:06;;;;;;;155.73;13.95;;;;;;;;;;4907783;29;20520;-61
2021/05/17 01:27:33;;;;;;;46.20;16.23;;;;;;;;;;4911500;29;20552;-61
2021/05/17 01:30:00;;;;;;;;;;;;;;;;;;4908775;29;20040;-61
2021/05/17 01:32:28;;;;;;;23.33;11.32;;;;;;;;;;4880070;29;19935;-61
2021/05/17 01:34:55;;;;;;;438.83;24.60;;;;;;;;;;4891085;29;20044;-61
2021/05/17 01:37:22;;;;;;;195.32;21.48;;;;;;;;;;4877869;29;20547;-61
2021/05/17 01:39:52;;;;;;;671.05;29.25;;;;;;;;;;4886739;29;20108;-61
2021/05/17 01:42:20;;;;;;;95.03;14.00;;;;;;;;;;4892938;29;20167;-61
2021/05/17 01:44:48;;;;;;;557.40;25.25;;;;;;;;;;4890845;29;20627;-61
2021/05/17 01:47:22;;;;;;;344.23;13.18;;;;;;;;;;4874294;29;20109;-62
2021/05/17 01:49:53;;;;;;;621.00;22.80;;;;;;;;;;4872955;29;20055;-61
2021/05/17 01:52:21;;;;;;;417.40;17.42;;;;;;;;;;4885726;29;20148;-62
2021/05/17 01:54:49;;;;;;;382.58;16.65;;;;;;;;;;4890200;29;20484;-61
2021/05/17 01:57:15;;;;;;;357.88;14.68;;;;;;;;;;4876407;29;20071;-62
2021/05/17 01:59:43;;;;;;;314.83;14.20;;;;;;;;;;4871148;29;20505;-61
2021/05/17 02:02:12;;;;;;;254.10;15.57;;;;;;;;;;4873107;29;20057;-61
2021/05/17 02:04:39;;;;;;;630.42;28.38;;;;;;;;;;4887521;29;20041;-61
2021/05/17 02:07:06;;;;;;;171.02;14.00;;;;;;;;;;4889572;29;20203;-61
2021/05/17 02:09:36;;;;;;;462.17;25.05;;;;;;;;;;4890994;29;20218;-61
2021/05/17 02:12:04;;;;;;;316.13;16.17;;;;;;;;;;4886623;29;20624;-61
2021/05/17 02:14:53;;;;;;;231.97;13.93;;;;;;;;;;4889052;29;20078;-61
2021/05/17 02:17:21;;;;;;;170.43;11.65;;;;;;;;;;4875664;29;20067;-61
2021/05/17 02:19:49;;;;;;;132.63;11.85;;;;;;;;;;4891028;29;20041;-61
2021/05/17 02:22:17;;;;;;;105.15;13.20;;;;;;;;;;4888733;29;20552;-61
2021/05/17 02:24:53;;;;;;;465.75;17.08;;;;;;;;;;4876585;29;20079;-61
2021/05/17 02:27:21;;;;;;;428.67;14.13;;;;;;;;;;4886950;29;20488;-61
2021/05/17 02:29:47;;;;;;;242.83;10.53;;;;;;;;;;4888095;29;20045;-61
2021/05/17 02:32:24;;;;;;;222.67;10.10;;;;;;;;;;4901172;29;20304;-61
2021/05/17 02:34:55;;;;;;;306.83;12.50;;;;;;;;;;4897628;29;20399;-61
2021/05/17 02:37:24;;;;;;;312.57;14.47;;;;;;;;;;4910476;29;20049;-62
2021/05/17 02:39:51;;;;;;;406.13;16.90;;;;;;;;;;4908159;29;20301;-62
2021/05/17 02:42:18;;;;;;;248.68;14.73;;;;;;;;;;4911319;29;20193;-62
2021/05/17 02:44:46;;;;;;;198.68;10.60;;;;;;;;;;4908887;29;20078;-61
2021/05/17 02:47:13;;;;;;;168.75;10.15;;;;;;;;;;4892984;29;20044;-62
2021/05/17 02:49:41;;;;;;;351.38;13.68;;;;;;;;;;4905835;29;20159;-62
2021/05/17 02:52:08;;;;;;;426.67;17.33;;;;;;;;;;4910665;29;20452;-61
2021/05/17 02:54:41;;;;;;;596.17;24.35;;;;;;;;;;4888821;29;20048;-61
2021/05/17 02:57:13;;;;;;;615.35;21.58;;;;;;;;;;4911588;29;20138;-61
2021/05/17 03:00:07;;;;;;;682.70;29.70;;;;;;;;;;4908468;29;20496;-61
2021/05/17 03:02:51;;;;;;;422.63;21.13;;;;;;;;;;4910363;29;20080;-61
2021/05/17 03:05:18;;;;;;;758.45;27.65;;;;;;;;;;4912307;29;20044;-62
2021/05/17 03:07:47;;;;;;;673.08;25.20;;;;;;;;;;4891977;29;20075;-61
2021/05/17 03:10:15;;;;;;;774.58;27.60;;;;;;;;;;4908152;29;20053;-61
2021/05/17 03:12:42;;;;;;;804.40;30.05;;;;;;;;;;4895486;29;20040;-61
2021/05/17 03:15:12;;;;;;;460.00;20.83;;;;;;;;;;4906698;29;20135;-61
2021/05/17 03:17:41;;;;;;;374.23;16.15;;;;;;;;;;4894973;29;20040;-61
2021/05/17 03:20:09;;;;;;;218.07;12.00;;;;;;;;;;4906445;29;20045;-61
2021/05/17 03:22:36;;;;;;;213.40;11.20;;;;;;;;;;4911066;29;20544;-61
2021/05/17 03:25:04;;;;;;;242.73;13.13;;;;;;;;;;4912800;29;20385;-62
2021/05/17 03:27:32;;;;;;;176.95;12.88;;;;;;;;;;4912622;29;20078;-61
2021/05/17 03:29:59;;;;;;;87.25;7.05;;;;;;;;;;4909851;29;20036;-62
2021/05/17 03:32:26;;;;;;;155.50;10.90;;;;;;;;;;4911817;29;20054;-61
2021/05/17 03:34:53;;;;;;;117.93;8.35;;;;;;;;;;4907861;29;20058;-61
2021/05/17 03:37:20;;;;;;;60.38;8.65;;;;;;;;;;4908159;29;20135;-61
2021/05/17 03:39:48;;;;;;;26.80;6.90;;;;;;;;;;4910714;29;20048;-61
2021/05/17 03:42:15;;;;;;;30.50;9.00;;;;;;;;;;4911320;29;20040;-61
2021/05/17 03:44:42;;;;;;;;;;;;;;;;;;4911060;29;20048;-61
2021/05/17 03:47:09;;;;;;;30.55;7.40;;;;;;;;;;4913628;29;19930;-61
2021/05/17 03:49:36;;;;;;;19.70;7.97;;;;;;;;;;4912980;29;20048;-61
2021/05/17 03:52:03;;;;;;;16.45;7.65;;;;;;;;;;4912555;29;20508;-61
2021/05/17 03:54:30;;;;;;;13.75;8.73;;;;;;;;;;4906256;29;20049;-61
2021/05/17 03:56:58;;;;;;;18.53;8.10;;;;;;;;;;4909324;29;20040;-61
2021/05/17 03:59:26;;;;;;;18.80;8.18;;;;;;;;;;4910373;29;20044;-60
2021/05/17 04:01:53;;;;;;;75.05;10.10;;;;;;;;;;4911527;29;20148;-61
2021/05/17 04:04:23;;;;;;;80.38;8.95;;;;;;;;;;4911253;29;20076;-61
2021/05/17 04:07:08;;;;;;;31.40;8.85;;;;;;;;;;4896495;29;20059;-61
2021/05/17 04:12:31;;;;;;;48.15;10.10;;;;;;;;;;4910584;29;20036;-62
2021/05/17 04:14:58;;;;;;;49.00;10.15;;;;;;;;;;4912730;29;20036;-61
2021/05/17 04:17:25;;;;;;;47.20;9.98;;;;;;;;;;4912648;29;20413;-61
2021/05/17 04:19:51;;;;;;;100.57;12.13;;;;;;;;;;4906745;29;20092;-61
2021/05/17 04:22:18;;;;;;;79.97;12.85;;;;;;;;;;4914982;29;20417;-61
2021/05/17 04:24:45;;;;;;;35.75;9.95;;;;;;;;;;4906740;29;20052;-61
2021/05/17 04:27:12;;;;;;;69.22;11.13;;;;;;;;;;4904385;29;20147;-61
2021/05/17 04:29:39;;;;;;;70.13;11.68;;;;;;;;;;4905585;29;20512;-61
2021/05/17 04:32:05;;;;;;;81.53;11.70;;;;;;;;;;4905203;29;20056;-61
2021/05/17 04:34:32;;;;;;;181.65;16.50;;;;;;;;;;4905841;29;20672;-61
2021/05/17 04:36:59;;;;;;;250.50;16.90;;;;;;;;;;4906820;29;20040;-62
2021/05/17 04:39:27;;;;;;;107.78;10.50;;;;;;;;;;4907305;29;20299;-61
2021/05/17 04:41:54;;;;;;;112.37;16.00;;;;;;;;;;4906104;29;20044;-61
2021/05/17 04:44:20;;;;;;;89.27;13.00;;;;;;;;;;4906429;29;20056;-61
2021/05/17 04:46:47;;;;;;;109.83;15.17;;;;;;;;;;4908940;29;20091;-61
2021/05/17 04:49:14;;;;;;;137.33;11.70;;;;;;;;;;4906703;29;20768;-61
2021/05/17 04:51:40;;;;;;;119.00;12.23;;;;;;;;;;4906703;29;20056;-61
2021/05/17 04:54:07;;;;;;;34.77;8.23;;;;;;;;;;4909378;29;20507;-61
2021/05/17 04:56:34;;;;;;;109.22;9.85;;;;;;;;;;4910293;29;20356;-61
2021/05/17 04:59:00;;;;;;;63.58;8.73;;;;;;;;;;4904890;29;20528;-61
2021/05/17 05:01:27;;;;;;;62.40;8.85;;;;;;;;;;4909497;29;20040;-62
2021/05/17 05:03:54;;;;;;;92.60;8.30;;;;;;;;;;4906705;29;20039;-61
2021/05/17 05:06:21;;;;;;;168.80;10.65;;;;;;;;;;4909704;29;20336;-61
2021/05/17 05:08:48;;;;;;;56.47;7.20;;;;;;;;;;4903926;29;20555;-62
2021/05/17 05:11:14;;;;;;;41.45;7.53;;;;;;;;;;4907557;29;20536;-61
2021/05/17 05:13:41;;;;;;;50.42;6.93;;;;;;;;;;4909667;29;20045;-61
2021/05/17 05:16:09;;;;;;;65.90;7.28;;;;;;;;;;4905401;29;20501;-61
2021/05/17 05:18:35;;;;;;;32.83;6.47;;;;;;;;;;4912296;29;20056;-61
2021/05/17 05:21:02;;;;;;;38.17;6.47;;;;;;;;;;4908774;29;20063;-62
2021/05/17 05:23:29;;;;;;;23.63;7.07;;;;;;;;;;4903911;29;20076;-61
2021/05/17 05:31:12;;;;;;;13.38;7.18;;;;;;;;;;4904461;29;20104;-62
2021/05/17 05:33:39;;;;;;;31.20;7.45;;;;;;;;;;4902878;29;20041;-61
2021/05/17 05:36:05;;;;;;;35.83;8.35;;;;;;;;;;4908895;29;20040;-61
2021/05/17 05:38:32;;;;;;;26.73;6.90;;;;;;;;;;4908638;29;20044;-61
2021/05/17 05:40:59;;;;;;;42.50;7.63;;;;;;;;;;4904321;29;20044;-61
2021/05/17 05:43:26;;;;;;;39.30;8.02;;;;;;;;;;4902267;29;20048;-62
2021/05/17 05:45:52;;;;;;;71.88;9.57;;;;;;;;;;4909095;29;20082;-61
2021/05/17 05:48:19;;;;;;;30.35;7.85;;;;;;;;;;4912222;29;20048;-62
2021/05/17 05:50:46;;;;;;;24.63;8.43;;;;;;;;;;4907293;29;20056;-62
2021/05/17 05:53:14;;;;;;;11.10;7.93;;;;;;;;;;4907611;29;20641;-62
2021/05/17 05:55:40;;;;;;;;;;;;;;;;;;4907196;29;20112;-61
2021/05/17 05:58:08;;;;;;;9.05;8.13;;;;;;;;;;4908155;29;20018;-61
2021/05/17 06:00:34;;;;;;;9.10;7.50;;;;;;;;;;4906071;29;20505;-61
2021/05/17 06:03:01;;;;;;;10.98;6.47;;;;;;;;;;4903506;29;20044;-61
2021/05/17 06:05:28;;;;;;;9.10;7.63;;;;;;;;;;4907377;29;20170;-61
2021/05/17 06:07:57;;;;;;;6.30;5.70;;;;;;;;;;4902322;29;20044;-61
2021/05/17 06:10:23;;;;;;;10.00;5.80;;;;;;;;;;4908448;29;20340;-61
2021/05/17 06:12:51;;;;;;;6.10;5.50;;;;;;;;;;4906559;29;20078;-62
2021/05/17 06:15:18;;;;;;;6.40;5.80;;;;;;;;;;4908681;29;20048;-61
2021/05/17 06:17:46;;;;;;;5.95;5.35;;;;;;;;;;4908826;29;20152;-62
2021/05/17 06:20:16;;;;;;;7.20;6.13;;;;;;;;;;4909100;29;20067;-61
2021/05/17 06:22:42;;;;;;;7.45;6.22;;;;;;;;;;4910896;29;20040;-61
2021/05/17 06:25:10;;;;;;;6.93;5.95;;;;;;;;;;4909410;29;20070;-61
2021/05/17 06:27:38;;;;;;;6.00;5.40;;;;;;;;;;4906144;29;20041;-61
2021/05/17 06:30:06;;;;;;;6.68;5.80;;;;;;;;;;4892876;29;20080;-61
2021/05/17 06:32:36;;;;;;;6.78;6.07;;;;;;;;;;4902250;29;20068;-61
2021/05/17 06:35:04;;;;;;;6.00;5.07;;;;;;;;;;4906574;29;20469;-61
2021/05/17 06:37:30;;;;;;;6.32;4.93;;;;;;;;;;4908182;29;20044;-62
2021/05/17 06:39:57;;;;;;;8.07;5.13;;;;;;;;;;4900896;29;20497;-61
2021/05/17 06:42:26;;;;;;;5.28;4.78;;;;;;;;;;4905804;29;20052;-61
2021/05/17 06:44:52;;;;;;;5.15;4.47;;;;;;;;;;4902601;29;20064;-61
2021/05/17 06:47:19;;;;;;;6.03;5.40;;;;;;;;;;4903864;29;20177;-61
2021/05/17 06:49:46;;;;;;;5.20;4.50;;;;;;;;;;4901949;29;20512;-61
2021/05/17 06:52:14;;;;;;;5.15;4.65;;;;;;;;;;4906642;29;20045;-61
2021/05/17 06:54:44;;;;;;;8.23;5.40;;;;;;;;;;4905503;29;20056;-61
2021/05/17 06:57:29;;;;;;;6.80;4.47;;;;;;;;;;4906974;29;20056;-61
2021/05/17 07:00:02;;;;;;;5.25;4.57;;;;;;;;;;4907788;29;20044;-61
2021/05/17 07:02:29;;;;;;;5.80;5.13;;;;;;;;;;4907257;29;20052;-61
2021/05/17 07:04:56;;;;;;;8.68;5.57;;;;;;;;;;4910459;29;20538;-61
2021/05/17 07:07:32;;;;;;;8.32;5.45;;;;;;;;;;4903175;29;20080;-61
2021/05/17 07:12:44;;;;;;;7.32;5.68;;;;;;;;;;4908185;29;20492;-61
2021/05/17 07:15:12;;;;;;;7.40;5.28;;;;;;;;;;4906023;29;20052;-61
2021/05/17 07:17:39;;;;;;;9.05;6.25;;;;;;;;;;4893315;29;20052;-61
2021/05/17 07:20:07;;;;;;;6.70;6.00;;;;;;;;;;4907463;29;20505;-61
2021/05/17 07:25:19;;;;;;;5.30;4.80;;;;;;;;;;4912210;29;20143;-61
2021/05/17 07:27:46;;;;;;;5.68;4.93;;;;;;;;;;4895360;29;20570;-60
2021/05/17 07:30:12;;;;;;;6.63;5.63;;;;;;;;;;4907760;29;20088;-61
2021/05/17 07:32:39;;;;;;;7.40;6.10;;;;;;;;;;4909091;29;20052;-61
2021/05/17 07:35:06;;;;;;;8.45;5.43;;;;;;;;;;4911495;29;20076;-61
2021/05/17 07:37:33;;;;;;;7.72;6.93;;;;;;;;;;4912322;29;20559;-60
2021/05/17 07:39:59;;;;;;;7.72;6.10;;;;;;;;;;4908683;29;20616;-60
2021/05/17 07:42:27;;;;;;;;;;;;;;;;;;4904033;29;20116;-60
2021/05/17 07:44:54;;;;;;;6.25;5.60;;;;;;;;;;4903027;29;19967;-60
2021/05/17 07:47:21;;;;;;;8.13;5.77;;;;;;;;;;4907895;29;20413;-60
2021/05/17 07:49:55;;;;;;;9.40;6.32;;;;;;;;;;4908086;29;20297;-60
2021/05/17 07:52:22;;;;;;;6.68;5.85;;;;;;;;;;4910808;29;20095;-60
2021/05/17 07:54:50;;;;;;;9.45;5.97;;;;;;;;;;4913567;29;20054;-60
2021/05/17 07:57:17;;;;;;;6.80;6.10;;;;;;;;;;4907299;29;20056;-60
2021/05/17 07:59:43;;;;;;;6.40;5.68;;;;;;;;;;4907738;29;20127;-60
2021/05/17 08:02:11;;;;;;;8.60;5.85;;;;;;;;;;4910064;29;20477;-60
2021/05/17 08:04:37;;;;;;;6.30;5.40;;;;;;;;;;4904858;29;20048;-60
2021/05/17 08:07:04;;;;;;;6.30;5.13;;;;;;;;;;4909604;29;20044;-60
2021/05/17 08:09:33;;;;;;;5.63;5.03;;;;;;;;;;4907233;29;20040;-60
2021/05/17 08:11:59;;;;;;;11.27;5.30;;;;;;;;;;4907724;29;20097;-60
2021/05/17 08:14:26;;;;;;;9.43;5.50;;;;;;;;;;4905975;29;20433;-60
2021/05/17 08:16:54;;;;;;;6.67;4.80;;;;;;;;;;4915249;29;20067;-60
2021/05/17 08:19:20;;;;;;;;;;;;;;;;;;4911004;29;20041;-59
2021/05/17 08:21:47;;;;;;;12.90;5.28;;;;;;;;;;4910835;29;19929;-60
2021/05/17 08:24:14;;;;;;;6.20;5.20;;;;;;;;;;4909590;29;20052;-60
2021/05/17 08:26:41;;;;;;;5.57;4.90;;;;;;;;;;4908303;29;20055;-60
2021/05/17 08:29:09;;;;;;;5.88;5.28;;;;;;;;;;4910200;29;20127;-60
2021/05/17 08:31:37;;;;;;;6.28;4.80;;;;;;;;;;4905815;29;20048;-60
2021/05/17 08:34:04;;;;;;;6.95;5.25;;;;;;;;;;4909554;29;20055;-60
2021/05/17 08:36:31;;;;;;;5.87;3.93;;;;;;;;;;4910903;29;20082;-60
2021/05/17 08:38:57;;;;;;;6.00;4.68;;;;;;;;;;4908003;29;20044;-60
2021/05/17 08:41:24;;;;;;;7.47;4.55;;;;;;;;;;4909299;29;20155;-60
2021/05/17 08:43:51;;;;;;;6.55;5.00;;;;;;;;;;4906432;29;20428;-60
2021/05/17 08:46:20;;;;;;;7.18;4.68;;;;;;;;;;4908569;29;20490;-60
2021/05/17 08:48:47;;;;;;;6.82;4.85;;;;;;;;;;4894556;29;20068;-60
2021/05/17 08:51:20;;;;;;;6.07;4.85;;;;;;;;;;4906996;29;20040;-60
2021/05/17 08:53:49;;;;;;;5.97;4.65;;;;;;;;;;4903588;29;20481;-59
2021/05/17 08:56:16;;;;;;;6.40;4.30;;;;;;;;;;4906186;29;20076;-59
2021/05/17 08:58:43;;;;;;;6.88;3.97;;;;;;;;;;4887407;29;20131;-60
2021/05/17 09:01:11;;;;;;;7.32;4.13;;;;;;;;;;4905568;29;20498;-60
2021/05/17 09:03:53;;;;;;;7.68;3.92;;;;;;;;;;4905548;29;20055;-60
2021/05/17 09:06:22;;;;;;;6.65;4.45;;;;;;;;;;4909764;29;20084;-59
2021/05/17 09:08:49;;;;;;;7.50;4.93;;;;;;;;;;4907060;29;20497;-59
2021/05/17 09:11:29;;;;;;;5.75;5.15;;;;;;;;;;4906855;29;20056;-60
2021/05/17 09:14:08;;;;;;;8.50;4.95;;;;;;;;;;4909561;29;20049;-59
2021/05/17 09:16:45;;;;;;;5.47;4.60;;;;;;;;;;4907115;29;20047;-60
2021/05/17 09:19:13;;;;;;;8.93;4.50;;;;;;;;;;4908134;29;20040;-60
2021/05/17 09:21:56;;;;;;;11.43;4.63;;;;;;;;;;4904797;29;20392;-59
2021/05/17 09:24:33;;;;;;;6.82;4.72;;;;;;;;;;4907241;29;20045;-59
2021/05/17 09:27:00;;;;;;;5.30;4.50;;;;;;;;;;4907922;29;20547;-59
2021/05/17 09:29:28;;;;;;;;;;;;;;;;;;4902622;29;20045;-60
2021/05/17 09:31:55;;;;;;;6.65;4.80;;;;;;;;;;4906149;29;19930;-60
2021/05/17 09:34:34;;;;;;;5.32;4.55;;;;;;;;;;4900354;29;20095;-59
2021/05/17 09:37:02;;;;;;;8.15;4.40;;;;;;;;;;4909280;29;20115;-60
2021/05/17 09:39:30;;;;;;;6.22;4.63;;;;;;;;;;4906169;29;20167;-59
2021/05/17 09:41:57;;;;;;;7.68;5.03;;;;;;;;;;4906692;29;20048;-60
2021/05/17 09:44:25;;;;;;;11.57;4.80;;;;;;;;;;4909225;29;20127;-60
2021/05/17 09:46:55;;;;;;;6.30;4.43;;;;;;;;;;4906494;29;20052;-59
2021/05/17 09:49:28;;;;;;;7.05;4.70;;;;;;;;;;4909773;29;20509;-59
2021/05/17 09:52:14;;;;;;;6.45;4.68;;;;;;;;;;4904622;29;20052;-60
2021/05/17 09:54:55;;;;;;;8.70;5.10;;;;;;;;;;4904986;29;20148;-59
2021/05/17 09:57:24;;;;;;;5.28;4.55;;;;;;;;;;4902507;29;20155;-60
2021/05/17 09:59:51;;;;;;;6.55;4.38;;;;;;;;;;4912741;29;20071;-59
2021/05/17 10:02:18;;;;;;;;;;;;;;;;;;4900869;29;20067;-59
2021/05/17 10:04:45;;;;;;;7.43;4.88;;;;;;;;;;4906887;29;20291;-60
2021/05/17 10:07:15;;;;;;;5.80;3.78;;;;;;;;;;4908317;29;20048;-60
2021/05/17 10:09:41;;;;;;;3.30;2.72;;;;;;;;;;4909577;29;20104;-59
2021/05/17 10:12:08;;;;;;;2.80;2.43;;;;;;;;;;4904311;29;20120;-60
2021/05/17 10:14:35;;;;;;;2.63;2.40;;;;;;;;;;4905627;29;20092;-59
2021/05/17 10:17:02;;;;;;;4.47;2.37;;;;;;;;;;4903624;29;20041;-59
2021/05/17 10:19:29;;;;;;;2.67;2.47;;;;;;;;;;4907768;29;20056;-60
2021/05/17 10:21:56;;;;;;;2.97;2.20;;;;;;;;;;4909086;29;20044;-60
2021/05/17 10:24:23;;;;;;;;;;;;;;;;;;4909960;29;20052;-60
2021/05/17 10:27:02;;;;;;;2.47;2.00;;;;;;;;;;4906743;29;19973;-59
2021/05/17 10:29:30;;;;;;;3.95;2.50;;;;;;;;;;4908762;29;20135;-60
2021/05/17 10:31:59;;;;;;;4.15;2.60;;;;;;;;;;4908918;29;20068;-60
2021/05/17 10:34:25;;;;;;;2.67;2.40;;;;;;;;;;4894297;29;20049;-60
2021/05/17 10:36:57;;;;;;;4.75;2.10;;;;;;;;;;4908029;29;20052;-60
2021/05/17 10:39:33;;;;;;;3.08;2.00;;;;;;;;;;4905221;29;20048;-61
2021/05/17 10:42:17;;;;;;;4.53;2.75;;;;;;;;;;4905533;29;20075;-60
2021/05/17 10:47:43;;;;;;;3.33;2.80;;;;;;;;;;4906601;29;20398;-60
2021/05/17 10:50:15;;;;;;;3.05;2.65;;;;;;;;;;4900724;29;20051;-60
2021/05/17 10:52:42;;;;;;;5.55;3.20;;;;;;;;;;4906151;29;20124;-60
2021/05/17 10:55:11;;;;;;;6.80;3.70;;;;;;;;;;4910931;29;20083;-60
2021/05/17 10:58:08;;;;;;;5.72;3.58;;;;;;;;;;4907794;29;20107;-60
2021/05/17 11:00:38;;;;;;;9.80;4.65;;;;;;;;;;4908327;29;20040;-60
2021/05/17 11:03:06;;;;;;;6.93;5.95;;;;;;;;;;4910779;29;20107;-60
2021/05/17 11:05:33;;;;;;;8.85;6.00;;;;;;;;;;4905890;29;20067;-61
2021/05/17 11:08:02;;;;;;;8.00;6.65;;;;;;;;;;4903550;29;20506;-61
2021/05/17 11:10:33;;;;;;;9.05;6.45;;;;;;;;;;4901645;29;20101;-60
2021/05/17 11:13:00;;;;;;;10.20;5.90;;;;;;;;;;4906566;29;20064;-61
2021/05/17 11:15:41;;;;;;;8.60;6.07;;;;;;;;;;4913478;29;20082;-60
2021/05/17 11:18:11;;;;;;;6.38;5.75;;;;;;;;;;4912564;29;20054;-60
2021/05/17 11:20:41;;;;;;;10.65;6.25;;;;;;;;;;4914396;29;20048;-61
2021/05/17 11:23:08;;;;;;;7.78;6.53;;;;;;;;;;4906371;29;20072;-60
2021/05/17 11:25:46;;;;;;;8.52;6.78;;;;;;;;;;4908215;29;20234;-60
2021/05/17 11:28:13;;;;;;;8.98;6.60;;;;;;;;;;4907321;29;20521;-60
2021/05/17 11:30:42;;;;;;;7.10;5.55;;;;;;;;;;4907961;29;20044;-60
2021/05/17 11:33:12;;;;;;;8.55;7.00;;;;;;;;;;4909000;29;20048;-60
2021/05/17 11:35:59;;;;;;;8.10;7.18;;;;;;;;;;4905630;29;20058;-60
2021/05/17 11:38:27;;;;;;;;;;;;;;;;;;4880584;29;20060;-60
2021/05/17 11:40:54;;;;;;;13.77;6.88;;;;;;;;;;4906920;29;19941;-60
2021/05/17 11:43:23;;;;;;;10.70;6.72;;;;;;;;;;4910119;29;20056;-60
2021/05/17 11:45:52;;;;;;;10.98;6.53;;;;;;;;;;4905098;29;20072;-60
2021/05/17 11:48:19;;;;;;;10.68;6.82;;;;;;;;;;4908675;29;20123;-60
2021/05/17 11:50:46;;;;;;;10.75;7.00;;;;;;;;;;4905528;29;20055;-60
2021/05/17 11:53:13;;;;;;;6.97;6.28;;;;;;;;;;4908185;29;20397;-60
2021/05/17 11:55:50;;;;;;;8.52;6.47;;;;;;;;;;4907056;29;20580;-60
2021/05/17 11:58:26;;;;;;;9.35;5.88;;;;;;;;;;4908225;29;20059;-60
2021/05/17 12:01:12;;;;;;;8.02;5.45;;;;;;;;;;4909822;29;20564;-60
2021/05/17 12:03:40;;;;;;;7.28;5.38;;;;;;;;;;4901688;29;20055;-61
2021/05/17 12:06:11;;;;;;;8.38;5.97;;;;;;;;;;4911468;29;20045;-60
2021/05/17 12:08:38;;;;;;;9.55;6.45;;;;;;;;;;4913041;29;20563;-60
2021/05/17 12:11:13;;;;;;;11.27;6.47;;;;;;;;;;4909673;29;20050;-61
2021/05/17 12:13:44;;;;;;;10.68;7.07;;;;;;;;;;4910722;29;20062;-61
2021/05/17 12:16:24;;;;;;;10.57;7.20;;;;;;;;;;4907766;29;20048;-61
2021/05/17 12:19:01;;;;;;;12.65;7.95;;;;;;;;;;4908143;29;20091;-61
2021/05/17 12:21:33;;;;;;;10.30;8.55;;;;;;;;;;4905405;29;20565;-61
2021/05/17 12:24:00;;;;;;;11.10;8.43;;;;;;;;;;4906936;29;20040;-61
2021/05/17 12:26:47;;;;;;;9.95;8.32;;;;;;;;;;4907509;29;20416;-61
2021/05/17 12:29:14;;;;;;;10.15;7.50;;;;;;;;;;4911995;29;20174;-62
2021/05/17 12:31:40;;;;;;;7.90;6.97;;;;;;;;;;4906428;29;20083;-62
2021/05/17 12:34:08;;;;;;;10.20;7.57;;;;;;;;;;4892583;29;20555;-62
2021/05/17 12:36:37;;;;;;;10.27;7.57;;;;;;;;;;4910759;29;20095;-62
2021/05/17 12:39:04;;;;;;;12.98;8.18;;;;;;;;;;4891520;29;20110;-62
2021/05/17 12:41:35;;;;;;;13.13;8.00;;;;;;;;;;4904250;29;20633;-62
2021/05/17 12:44:02;;;;;;;11.85;8.93;;;;;;;;;;4894017;29;20067;-62
2021/05/17 12:46:30;;;;;;;12.90;8.65;;;;;;;;;;4893905;29;20054;-62
2021/05/17 12:48:57;;;;;;;10.63;8.73;;;;;;;;;;4913315;29;20072;-62
2021/05/17 12:51:25;;;;;;;12.32;8.98;;;;;;;;;;4907052;29;20567;-62
2021/05/17 12:53:54;;;;;;;12.75;8.57;;;;;;;;;;4909718;29;20100;-62
2021/05/17 12:56:27;;;;;;;13.43;9.02;;;;;;;;;;4908761;29;20131;-62
2021/05/17 12:58:55;;;;;;;14.52;8.95;;;;;;;;;;4909690;29;20035;-62
2021/05/17 13:01:22;;;;;;;10.10;7.65;;;;;;;;;;4906011;29;20074;-62
2021/05/17 13:03:56;;;;;;;14.88;9.38;;;;;;;;;;4907842;29;20055;-62
2021/05/17 13:06:27;;;;;;;13.50;8.45;;;;;;;;;;4908219;29;20085;-62
2021/05/17 13:09:02;;;;;;;9.00;7.15;;;;;;;;;;4908740;29;20054;-62
2021/05/17 13:11:40;;;;;;;14.88;8.00;;;;;;;;;;4905402;29;20052;-62
2021/05/17 13:14:12;;;;;;;11.20;7.60;;;;;;;;;;4903805;29;20500;-62
2021/05/17 13:16:57;;;;;;;14.43;7.30;;;;;;;;;;4902388;29;20056;-62
2021/05/17 13:30:41;;;;;;;7.97;6.30;;;;;;;;;;4909381;29;20064;-61
2021/05/17 13:33:08;;;;;;;11.13;5.57;;;;;;;;;;4905436;29;20048;-61
2021/05/17 13:35:35;;;;;;;11.57;5.47;;;;;;;;;;4904751;29;20059;-61
2021/05/17 13:38:02;;;;;;;8.68;5.53;;;;;;;;;;4905407;29;20051;-62
2021/05/17 13:40:29;;;;;;;8.50;5.13;;;;;;;;;;4891110;29;20040;-61
2021/05/17 13:42:56;;;;;;;8.32;6.47;;;;;;;;;;4905234;29;20390;-61
2021/05/17 13:45:22;;;;;;;11.32;5.85;;;;;;;;;;4909819;29;20050;-61
2021/05/17 13:47:50;;;;;;;12.23;5.93;;;;;;;;;;4906886;29;20056;-61
2021/05/17 13:50:20;;;;;;;10.93;6.00;;;;;;;;;;4906878;29;20090;-61
2021/05/17 13:52:46;;;;;;;8.98;6.00;;;;;;;;;;4906728;29;20048;-61
2021/05/17 13:55:15;;;;;;;7.72;5.63;;;;;;;;;;4907740;29;20036;-61
2021/05/17 13:57:42;;;;;;;8.25;5.78;;;;;;;;;;4907521;29;20062;-61
2021/05/17 14:00:09;;;;;;;8.98;5.88;;;;;;;;;;4905660;29;20058;-61
2021/05/17 14:02:40;;;;;;;7.53;5.20;;;;;;;;;;4910777;29;20460;-60
2021/05/17 14:05:08;;;;;;;9.82;5.30;;;;;;;;;;4907010;29;20480;-60
2021/05/17 14:07:35;;;;;;;9.48;4.72;;;;;;;;;;4907841;29;20092;-60
2021/05/17 14:10:02;;;;;;;6.68;5.60;;;;;;;;;;4907373;29;20430;-60
2021/05/17 14:12:29;;;;;;;11.98;5.25;;;;;;;;;;4907930;29;20040;-60
2021/05/17 14:14:56;;;;;;;11.95;5.10;;;;;;;;;;4907549;29;20127;-60
2021/05/17 14:17:23;;;;;;;9.05;4.45;;;;;;;;;;4907519;29;20048;-60
2021/05/17 14:19:49;;;;;;;5.78;4.22;;;;;;;;;;4905121;29;20584;-60
2021/05/17 14:22:16;;;;;;;7.40;4.50;;;;;;;;;;4903464;29;20041;-60
2021/05/17 14:24:42;;;;;;;7.27;4.30;;;;;;;;;;4911184;29;20126;-60
2021/05/17 14:27:10;;;;;;;6.55;4.30;;;;;;;;;;4906686;29;20375;-60
2021/05/17 14:29:36;;;;;;;7.75;3.50;;;;;;;;;;4914313;29;20054;-60
2021/05/17 14:32:05;;;;;;;7.03;4.10;;;;;;;;;;4910340;29;20137;-60
2021/05/17 14:34:32;;;;;;;7.68;2.97;;;;;;;;;;4912170;29;20115;-60
2021/05/17 14:36:59;;;;;;;3.55;3.03;;;;;;;;;;4911698;29;20515;-60
2021/05/17 14:39:40;;;;;;;6.45;3.40;;;;;;;;;;4910578;29;20040;-59
2021/05/17 14:42:07;;;;;;;5.68;3.88;;;;;;;;;;4905601;29;20420;-60
2021/05/17 14:44:34;;;;;;;6.10;3.67;;;;;;;;;;4910321;29;20429;-59
2021/05/17 14:47:01;;;;;;;7.78;3.53;;;;;;;;;;4912399;29;20036;-61
2021/05/17 14:49:27;;;;;;;5.90;3.80;;;;;;;;;;4911337;29;20055;-64
2021/05/17 14:52:01;;;;;;;7.90;3.90;;;;;;;;;;4905766;29;20113;-59
2021/05/17 14:54:28;;;;;;;4.68;2.90;;;;;;;;;;4910460;29;20119;-59
2021/05/17 14:56:56;;;;;;;6.13;3.10;;;;;;;;;;4910837;29;20052;-59
2021/05/17 14:59:22;;;;;;;6.78;2.90;;;;;;;;;;4900713;29;20076;-59
2021/05/17 15:01:49;;;;;;;4.60;2.75;;;;;;;;;;4907826;29;20528;-59
2021/05/17 15:04:16;;;;;;;5.45;2.75;;;;;;;;;;4907847;29;20040;-59
2021/05/17 15:06:44;;;;;;;5.93;2.95;;;;;;;;;;4911897;29;20040;-59
2021/05/17 15:09:11;;;;;;;8.40;3.33;;;;;;;;;;4908132;29;20052;-57
2021/05/17 15:11:38;;;;;;;7.43;3.30;;;;;;;;;;4910324;29;20048;-59
2021/05/17 15:14:04;;;;;;;5.40;3.00;;;;;;;;;;4909046;29;20572;-58